sensor_id;sensor_type;location;lat;lon;timestamp;P1;durP1;ratioP1;P2;durP2;ratioP2
78131;SDS011;67381;47.672;9.380;2023-03-14T00:01:56;2.38;;;0.43;;
78131;SDS011;67381;47.672;9.380;2023-03-14T00:04:23;1.17;;;0.40;;
78131;SDS011;67381;47.672;9.380;2023-03-14T00:06:51;1.20;;;0.40;;
78131;SDS011;67381;47.672;9.380;2023-03-14T00:09:18;2.53;;;0.45;;
78131;SDS011;67381;47.672;9.380;2023-03-14T00:11:45;0.93;;;0.30;;
78131;SDS011;67381;47.672;9.380;2023-03-14T00:14:13;2.10;;;0.60;;
78131;SDS011;67381;47.672;9.380;2023-03-14T00:16:45;2.40;;;0.63;;
78131;SDS011;67381;47.672;9.380;2023-03-14T00:19:13;1.08;;;0.40;;
78131;SDS011;67381;47.672;9.380;2023-03-14T00:21:40;1.42;;;0.50;;
78131;SDS011;67381;47.672;9.380;2023-03-14T00:24:10;1.80;;;0.50;;
78131;SDS011;67381;47.672;9.380;2023-03-14T00:26:37;1.35;;;0.57;;
78131;SDS011;67381;47.672;9.380;2023-03-14T00:29:05;8.32;;;1.35;;
78131;SDS011;67381;47.672;9.380;2023-03-14T00:31:32;1.58;;;0.65;;
78131;SDS011;67381;47.672;9.380;2023-03-14T00:33:59;0.75;;;0.40;;
78131;SDS011;67381;47.672;9.380;2023-03-14T00:36:27;0.85;;;0.77;;
78131;SDS011;67381;47.672;9.380;2023-03-14T00:38:54;1.83;;;0.75;;
78131;SDS011;67381;47.672;9.380;2023-03-14T00:41:22;2.95;;;0.43;;
78131;SDS011;67381;47.672;9.380;2023-03-14T00:43:50;1.13;;;0.40;;
78131;SDS011;67381;47.672;9.380;2023-03-14T00:46:18;1.67;;;0.57;;
78131;SDS011;67381;47.672;9.380;2023-03-14T00:48:45;0.82;;;0.40;;
78131;SDS011;67381;47.672;9.380;2023-03-14T00:51:13;1.63;;;0.35;;
78131;SDS011;67381;47.672;9.380;2023-03-14T00:53:43;0.88;;;0.43;;
78131;SDS011;67381;47.672;9.380;2023-03-14T00:56:11;0.73;;;0.35;;
78131;SDS011;67381;47.672;9.380;2023-03-14T00:58:39;1.63;;;0.52;;
78131;SDS011;67381;47.672;9.380;2023-03-14T01:01:10;0.75;;;0.40;;
78131;SDS011;67381;47.672;9.380;2023-03-14T01:03:40;2.22;;;0.40;;
78131;SDS011;67381;47.672;9.380;2023-03-14T01:06:12;1.23;;;0.30;;
78131;SDS011;67381;47.672;9.380;2023-03-14T01:08:39;0.90;;;0.20;;
78131;SDS011;67381;47.672;9.380;2023-03-14T01:11:08;0.35;;;0.30;;
78131;SDS011;67381;47.672;9.380;2023-03-14T01:13:37;0.15;;;0.15;;
78131;SDS011;67381;47.672;9.380;2023-03-14T01:16:05;0.68;;;0.30;;
78131;SDS011;67381;47.672;9.380;2023-03-14T01:18:34;0.57;;;0.28;;
78131;SDS011;67381;47.672;9.380;2023-03-14T01:21:03;1.38;;;0.50;;
78131;SDS011;67381;47.672;9.380;2023-03-14T01:23:31;0.22;;;0.20;;
78131;SDS011;67381;47.672;9.380;2023-03-14T01:25:58;0.82;;;0.20;;
78131;SDS011;67381;47.672;9.380;2023-03-14T01:28:25;0.55;;;0.38;;
78131;SDS011;67381;47.672;9.380;2023-03-14T01:30:53;0.57;;;0.30;;
78131;SDS011;67381;47.672;9.380;2023-03-14T01:33:20;0.55;;;0.30;;
78131;SDS011;67381;47.672;9.380;2023-03-14T01:35:49;0.85;;;0.60;;
78131;SDS011;67381;47.672;9.380;2023-03-14T01:38:16;0.17;;;0.17;;
78131;SDS011;67381;47.672;9.380;2023-03-14T01:40:44;1.10;;;0.20;;
78131;SDS011;67381;47.672;9.380;2023-03-14T01:43:15;1.85;;;0.35;;
78131;SDS011;67381;47.672;9.380;2023-03-14T01:51:03;0.65;;;0.28;;
78131;SDS011;67381;47.672;9.380;2023-03-14T01:53:33;0.40;;;0.30;;
78131;SDS011;67381;47.672;9.380;2023-03-14T01:56:01;0.63;;;0.20;;
78131;SDS011;67381;47.672;9.380;2023-03-14T01:58:30;0.60;;;0.20;;
78131;SDS011;67381;47.672;9.380;2023-03-14T02:00:59;0.98;;;0.38;;
78131;SDS011;67381;47.672;9.380;2023-03-14T02:03:26;0.88;;;0.30;;
78131;SDS011;67381;47.672;9.380;2023-03-14T02:05:55;3.92;;;0.40;;
78131;SDS011;67381;47.672;9.380;2023-03-14T02:08:24;0.35;;;0.22;;
78131;SDS011;67381;47.672;9.380;2023-03-14T02:10:51;0.47;;;0.32;;
78131;SDS011;67381;47.672;9.380;2023-03-14T02:13:18;0.32;;;0.28;;
78131;SDS011;67381;47.672;9.380;2023-03-14T02:15:47;1.40;;;0.30;;
78131;SDS011;67381;47.672;9.380;2023-03-14T02:18:14;2.47;;;0.93;;
78131;SDS011;67381;47.672;9.380;2023-03-14T02:20:58;1.50;;;0.20;;
78131;SDS011;67381;47.672;9.380;2023-03-14T02:23:34;0.77;;;0.35;;
78131;SDS011;67381;47.672;9.380;2023-03-14T02:26:24;0.52;;;0.30;;
78131;SDS011;67381;47.672;9.380;2023-03-14T02:28:58;1.98;;;0.30;;
78131;SDS011;67381;47.672;9.380;2023-03-14T02:31:26;1.58;;;0.60;;
78131;SDS011;67381;47.672;9.380;2023-03-14T02:33:53;1.08;;;0.35;;
78131;SDS011;67381;47.672;9.380;2023-03-14T02:36:21;0.20;;;0.20;;
78131;SDS011;67381;47.672;9.380;2023-03-14T02:39:08;0.30;;;0.20;;
78131;SDS011;67381;47.672;9.380;2023-03-14T02:41:43;1.95;;;0.40;;
78131;SDS011;67381;47.672;9.380;2023-03-14T02:44:12;0.57;;;0.20;;
78131;SDS011;67381;47.672;9.380;2023-03-14T02:46:39;0.32;;;0.30;;
78131;SDS011;67381;47.672;9.380;2023-03-14T02:49:12;0.85;;;0.30;;
78131;SDS011;67381;47.672;9.380;2023-03-14T02:51:41;0.45;;;0.20;;
78131;SDS011;67381;47.672;9.380;2023-03-14T02:54:10;0.22;;;0.10;;
78131;SDS011;67381;47.672;9.380;2023-03-14T02:56:38;0.22;;;0.20;;
78131;SDS011;67381;47.672;9.380;2023-03-14T02:59:05;0.35;;;0.30;;
78131;SDS011;67381;47.672;9.380;2023-03-14T03:01:33;0.95;;;0.22;;
78131;SDS011;67381;47.672;9.380;2023-03-14T03:04:00;0.38;;;0.10;;
78131;SDS011;67381;47.672;9.380;2023-03-14T03:06:28;2.53;;;0.22;;
78131;SDS011;67381;47.672;9.380;2023-03-14T03:08:55;0.22;;;0.20;;
78131;SDS011;67381;47.672;9.380;2023-03-14T03:11:22;0.75;;;0.20;;
78131;SDS011;67381;47.672;9.380;2023-03-14T03:13:50;0.20;;;0.20;;
78131;SDS011;67381;47.672;9.380;2023-03-14T03:16:17;0.32;;;0.20;;
78131;SDS011;67381;47.672;9.380;2023-03-14T03:18:44;0.38;;;0.32;;
78131;SDS011;67381;47.672;9.380;2023-03-14T03:21:11;0.15;;;0.10;;
78131;SDS011;67381;47.672;9.380;2023-03-14T03:23:38;1.08;;;0.30;;
78131;SDS011;67381;47.672;9.380;2023-03-14T03:26:06;0.20;;;0.20;;
78131;SDS011;67381;47.672;9.380;2023-03-14T03:28:33;0.38;;;0.20;;
78131;SDS011;67381;47.672;9.380;2023-03-14T03:31:06;0.43;;;0.30;;
78131;SDS011;67381;47.672;9.380;2023-03-14T03:33:34;1.48;;;0.30;;
78131;SDS011;67381;47.672;9.380;2023-03-14T03:36:03;0.68;;;0.30;;
78131;SDS011;67381;47.672;9.380;2023-03-14T03:38:30;0.20;;;0.10;;
78131;SDS011;67381;47.672;9.380;2023-03-14T03:40:57;0.47;;;0.20;;
78131;SDS011;67381;47.672;9.380;2023-03-14T03:43:25;0.80;;;0.30;;
78131;SDS011;67381;47.672;9.380;2023-03-14T03:45:52;0.30;;;0.30;;
78131;SDS011;67381;47.672;9.380;2023-03-14T03:48:19;0.13;;;0.13;;
78131;SDS011;67381;47.672;9.380;2023-03-14T03:50:46;0.20;;;0.20;;
78131;SDS011;67381;47.672;9.380;2023-03-14T03:53:14;1.13;;;0.43;;
78131;SDS011;67381;47.672;9.380;2023-03-14T03:55:43;0.32;;;0.20;;
78131;SDS011;67381;47.672;9.380;2023-03-14T03:58:10;0.90;;;0.38;;
78131;SDS011;67381;47.672;9.380;2023-03-14T04:00:38;0.45;;;0.25;;
78131;SDS011;67381;47.672;9.380;2023-03-14T04:03:05;0.20;;;0.20;;
78131;SDS011;67381;47.672;9.380;2023-03-14T04:05:33;0.25;;;0.20;;
78131;SDS011;67381;47.672;9.380;2023-03-14T04:08:01;0.43;;;0.35;;
78131;SDS011;67381;47.672;9.380;2023-03-14T04:10:29;0.52;;;0.20;;
78131;SDS011;67381;47.672;9.380;2023-03-14T04:12:56;0.20;;;0.20;;
78131;SDS011;67381;47.672;9.380;2023-03-14T04:15:23;0.30;;;0.20;;
78131;SDS011;67381;47.672;9.380;2023-03-14T04:17:50;0.40;;;0.20;;
78131;SDS011;67381;47.672;9.380;2023-03-14T04:20:18;0.63;;;0.20;;
78131;SDS011;67381;47.672;9.380;2023-03-14T04:22:45;0.30;;;0.30;;
78131;SDS011;67381;47.672;9.380;2023-03-14T04:25:12;0.20;;;0.20;;
78131;SDS011;67381;47.672;9.380;2023-03-14T04:27:39;1.00;;;0.30;;
78131;SDS011;67381;47.672;9.380;2023-03-14T04:30:07;0.30;;;0.20;;
78131;SDS011;67381;47.672;9.380;2023-03-14T04:32:35;0.40;;;0.30;;
78131;SDS011;67381;47.672;9.380;2023-03-14T04:35:02;0.63;;;0.20;;
78131;SDS011;67381;47.672;9.380;2023-03-14T04:37:29;0.50;;;0.20;;
78131;SDS011;67381;47.672;9.380;2023-03-14T04:39:56;0.73;;;0.30;;
78131;SDS011;67381;47.672;9.380;2023-03-14T04:42:24;0.50;;;0.40;;
78131;SDS011;67381;47.672;9.380;2023-03-14T04:44:51;0.57;;;0.30;;
78131;SDS011;67381;47.672;9.380;2023-03-14T04:47:18;0.20;;;0.20;;
78131;SDS011;67381;47.672;9.380;2023-03-14T04:49:45;1.15;;;0.28;;
78131;SDS011;67381;47.672;9.380;2023-03-14T04:52:12;0.35;;;0.20;;
78131;SDS011;67381;47.672;9.380;2023-03-14T04:54:40;0.20;;;0.20;;
78131;SDS011;67381;47.672;9.380;2023-03-14T04:57:07;0.38;;;0.25;;
78131;SDS011;67381;47.672;9.380;2023-03-14T04:59:34;0.20;;;0.20;;
78131;SDS011;67381;47.672;9.380;2023-03-14T05:02:01;0.30;;;0.20;;
78131;SDS011;67381;47.672;9.380;2023-03-14T05:04:29;0.40;;;0.20;;
78131;SDS011;67381;47.672;9.380;2023-03-14T05:06:59;0.73;;;0.20;;
78131;SDS011;67381;47.672;9.380;2023-03-14T05:09:27;1.30;;;0.40;;
78131;SDS011;67381;47.672;9.380;2023-03-14T05:11:54;0.38;;;0.30;;
78131;SDS011;67381;47.672;9.380;2023-03-14T05:14:21;0.63;;;0.30;;
78131;SDS011;67381;47.672;9.380;2023-03-14T05:16:49;1.13;;;0.40;;
78131;SDS011;67381;47.672;9.380;2023-03-14T05:19:16;3.38;;;1.10;;
78131;SDS011;67381;47.672;9.380;2023-03-14T05:21:43;1.85;;;0.65;;
78131;SDS011;67381;47.672;9.380;2023-03-14T05:24:10;2.17;;;0.80;;
78131;SDS011;67381;47.672;9.380;2023-03-14T05:26:37;1.73;;;0.52;;
78131;SDS011;67381;47.672;9.380;2023-03-14T05:29:05;1.45;;;0.60;;
78131;SDS011;67381;47.672;9.380;2023-03-14T05:31:32;0.85;;;0.40;;
78131;SDS011;67381;47.672;9.380;2023-03-14T05:33:59;0.82;;;0.38;;
78131;SDS011;67381;47.672;9.380;2023-03-14T05:36:26;2.25;;;0.63;;
78131;SDS011;67381;47.672;9.380;2023-03-14T05:38:54;4.15;;;1.55;;
78131;SDS011;67381;47.672;9.380;2023-03-14T05:41:21;4.40;;;1.58;;
78131;SDS011;67381;47.672;9.380;2023-03-14T05:43:48;3.08;;;1.10;;
78131;SDS011;67381;47.672;9.380;2023-03-14T05:46:15;3.85;;;1.40;;
78131;SDS011;67381;47.672;9.380;2023-03-14T05:48:43;4.75;;;1.70;;
78131;SDS011;67381;47.672;9.380;2023-03-14T05:51:10;4.88;;;1.58;;
78131;SDS011;67381;47.672;9.380;2023-03-14T05:53:37;5.18;;;1.50;;
78131;SDS011;67381;47.672;9.380;2023-03-14T05:56:04;2.13;;;0.80;;
78131;SDS011;67381;47.672;9.380;2023-03-14T05:58:32;2.17;;;1.00;;
78131;SDS011;67381;47.672;9.380;2023-03-14T06:01:02;1.90;;;0.70;;
78131;SDS011;67381;47.672;9.380;2023-03-14T06:03:30;1.35;;;0.40;;
78131;SDS011;67381;47.672;9.380;2023-03-14T06:05:58;2.40;;;0.75;;
78131;SDS011;67381;47.672;9.380;2023-03-14T06:08:25;1.70;;;0.50;;
78131;SDS011;67381;47.672;9.380;2023-03-14T06:10:52;3.58;;;1.10;;
78131;SDS011;67381;47.672;9.380;2023-03-14T06:13:20;1.48;;;0.65;;
78131;SDS011;67381;47.672;9.380;2023-03-14T06:15:47;1.85;;;0.55;;
78131;SDS011;67381;47.672;9.380;2023-03-14T06:18:14;1.27;;;0.30;;
78131;SDS011;67381;47.672;9.380;2023-03-14T06:20:41;1.83;;;0.50;;
78131;SDS011;67381;47.672;9.380;2023-03-14T06:23:09;0.22;;;0.10;;
78131;SDS011;67381;47.672;9.380;2023-03-14T06:25:36;1.52;;;0.70;;
78131;SDS011;67381;47.672;9.380;2023-03-14T06:28:04;1.08;;;0.30;;
78131;SDS011;67381;47.672;9.380;2023-03-14T06:30:31;0.32;;;0.32;;
78131;SDS011;67381;47.672;9.380;2023-03-14T06:32:58;1.45;;;0.50;;
78131;SDS011;67381;47.672;9.380;2023-03-14T06:35:26;3.03;;;0.45;;
78131;SDS011;67381;47.672;9.380;2023-03-14T06:37:53;3.70;;;0.65;;
78131;SDS011;67381;47.672;9.380;2023-03-14T06:40:20;0.77;;;0.30;;
78131;SDS011;67381;47.672;9.380;2023-03-14T06:42:48;1.40;;;0.55;;
78131;SDS011;67381;47.672;9.380;2023-03-14T06:45:15;0.75;;;0.40;;
78131;SDS011;67381;47.672;9.380;2023-03-14T06:47:42;1.60;;;0.50;;
78131;SDS011;67381;47.672;9.380;2023-03-14T06:50:10;1.05;;;0.40;;
78131;SDS011;67381;47.672;9.380;2023-03-14T06:52:37;1.67;;;0.40;;
78131;SDS011;67381;47.672;9.380;2023-03-14T06:55:08;2.15;;;0.88;;
78131;SDS011;67381;47.672;9.380;2023-03-14T06:57:35;1.77;;;0.60;;
78131;SDS011;67381;47.672;9.380;2023-03-14T07:00:03;1.73;;;0.60;;
78131;SDS011;67381;47.672;9.380;2023-03-14T07:02:34;2.30;;;0.60;;
78131;SDS011;67381;47.672;9.380;2023-03-14T07:05:08;1.08;;;0.40;;
78131;SDS011;67381;47.672;9.380;2023-03-14T07:07:37;1.13;;;0.50;;
78131;SDS011;67381;47.672;9.380;2023-03-14T07:10:04;0.88;;;0.40;;
78131;SDS011;67381;47.672;9.380;2023-03-14T07:12:32;1.25;;;0.57;;
78131;SDS011;67381;47.672;9.380;2023-03-14T07:14:59;1.60;;;0.65;;
78131;SDS011;67381;47.672;9.380;2023-03-14T07:17:37;2.22;;;0.80;;
78131;SDS011;67381;47.672;9.380;2023-03-14T07:20:05;1.40;;;0.60;;
78131;SDS011;67381;47.672;9.380;2023-03-14T07:22:34;0.95;;;0.40;;
78131;SDS011;67381;47.672;9.380;2023-03-14T07:25:01;0.60;;;0.38;;
78131;SDS011;67381;47.672;9.380;2023-03-14T07:27:29;2.25;;;0.50;;
78131;SDS011;67381;47.672;9.380;2023-03-14T07:29:56;1.42;;;0.50;;
78131;SDS011;67381;47.672;9.380;2023-03-14T07:32:23;3.40;;;0.98;;
78131;SDS011;67381;47.672;9.380;2023-03-14T07:34:50;1.92;;;0.57;;
78131;SDS011;67381;47.672;9.380;2023-03-14T07:37:17;1.40;;;0.50;;
78131;SDS011;67381;47.672;9.380;2023-03-14T07:39:45;1.02;;;0.45;;
78131;SDS011;67381;47.672;9.380;2023-03-14T07:42:12;2.75;;;0.80;;
78131;SDS011;67381;47.672;9.380;2023-03-14T07:44:39;1.58;;;0.60;;
78131;SDS011;67381;47.672;9.380;2023-03-14T07:47:06;1.65;;;0.50;;
78131;SDS011;67381;47.672;9.380;2023-03-14T07:49:33;1.75;;;0.82;;
78131;SDS011;67381;47.672;9.380;2023-03-14T07:52:01;1.63;;;0.63;;
78131;SDS011;67381;47.672;9.380;2023-03-14T07:54:28;1.63;;;0.60;;
78131;SDS011;67381;47.672;9.380;2023-03-14T07:56:55;1.05;;;0.50;;
78131;SDS011;67381;47.672;9.380;2023-03-14T07:59:25;1.35;;;0.43;;
78131;SDS011;67381;47.672;9.380;2023-03-14T08:01:53;0.65;;;0.50;;
78131;SDS011;67381;47.672;9.380;2023-03-14T08:04:20;0.77;;;0.40;;
78131;SDS011;67381;47.672;9.380;2023-03-14T08:06:47;0.98;;;0.43;;
78131;SDS011;67381;47.672;9.380;2023-03-14T08:09:16;0.75;;;0.35;;
78131;SDS011;67381;47.672;9.380;2023-03-14T08:11:43;1.73;;;0.40;;
78131;SDS011;67381;47.672;9.380;2023-03-14T08:14:10;0.80;;;0.30;;
78131;SDS011;67381;47.672;9.380;2023-03-14T08:16:38;0.57;;;0.30;;
78131;SDS011;67381;47.672;9.380;2023-03-14T08:19:05;1.73;;;0.45;;
78131;SDS011;67381;47.672;9.380;2023-03-14T08:21:32;1.02;;;0.32;;
78131;SDS011;67381;47.672;9.380;2023-03-14T08:24:00;1.58;;;0.50;;
78131;SDS011;67381;47.672;9.380;2023-03-14T08:26:27;0.70;;;0.40;;
78131;SDS011;67381;47.672;9.380;2023-03-14T08:28:55;0.90;;;0.35;;
78131;SDS011;67381;47.672;9.380;2023-03-14T08:31:22;1.42;;;0.43;;
78131;SDS011;67381;47.672;9.380;2023-03-14T08:33:49;0.65;;;0.30;;
78131;SDS011;67381;47.672;9.380;2023-03-14T08:36:19;1.17;;;0.50;;
78131;SDS011;67381;47.672;9.380;2023-03-14T08:38:49;0.40;;;0.20;;
78131;SDS011;67381;47.672;9.380;2023-03-14T08:41:17;1.00;;;0.35;;
78131;SDS011;67381;47.672;9.380;2023-03-14T08:43:44;0.75;;;0.38;;
78131;SDS011;67381;47.672;9.380;2023-03-14T08:46:11;0.88;;;0.30;;
78131;SDS011;67381;47.672;9.380;2023-03-14T08:48:38;1.17;;;0.35;;
78131;SDS011;67381;47.672;9.380;2023-03-14T08:51:09;7.28;;;0.45;;
78131;SDS011;67381;47.672;9.380;2023-03-14T08:53:38;1.20;;;0.45;;
78131;SDS011;67381;47.672;9.380;2023-03-14T08:56:05;1.30;;;0.40;;
78131;SDS011;67381;47.672;9.380;2023-03-14T08:58:33;1.45;;;0.30;;
78131;SDS011;67381;47.672;9.380;2023-03-14T09:01:00;0.95;;;0.38;;
78131;SDS011;67381;47.672;9.380;2023-03-14T09:03:28;0.50;;;0.20;;
78131;SDS011;67381;47.672;9.380;2023-03-14T09:05:55;0.90;;;0.40;;
78131;SDS011;67381;47.672;9.380;2023-03-14T09:08:22;1.23;;;0.52;;
78131;SDS011;67381;47.672;9.380;2023-03-14T09:10:50;1.08;;;0.40;;
78131;SDS011;67381;47.672;9.380;2023-03-14T09:13:17;0.75;;;0.20;;
78131;SDS011;67381;47.672;9.380;2023-03-14T09:15:44;1.23;;;0.35;;
78131;SDS011;67381;47.672;9.380;2023-03-14T09:18:11;0.88;;;0.35;;
78131;SDS011;67381;47.672;9.380;2023-03-14T09:20:39;1.65;;;0.60;;
78131;SDS011;67381;47.672;9.380;2023-03-14T09:23:06;0.50;;;0.30;;
78131;SDS011;67381;47.672;9.380;2023-03-14T09:25:34;1.13;;;0.35;;
78131;SDS011;67381;47.672;9.380;2023-03-14T09:28:01;0.82;;;0.40;;
78131;SDS011;67381;47.672;9.380;2023-03-14T09:30:28;1.80;;;0.50;;
78131;SDS011;67381;47.672;9.380;2023-03-14T09:32:55;1.90;;;0.30;;
78131;SDS011;67381;47.672;9.380;2023-03-14T09:35:24;2.35;;;1.27;;
78131;SDS011;67381;47.672;9.380;2023-03-14T09:37:51;1.80;;;0.40;;
78131;SDS011;67381;47.672;9.380;2023-03-14T09:40:19;1.13;;;0.50;;
78131;SDS011;67381;47.672;9.380;2023-03-14T09:42:47;1.60;;;0.40;;
78131;SDS011;67381;47.672;9.380;2023-03-14T09:45:22;1.42;;;0.40;;
78131;SDS011;67381;47.672;9.380;2023-03-14T09:47:52;0.30;;;0.30;;
78131;SDS011;67381;47.672;9.380;2023-03-14T09:50:26;1.23;;;0.32;;
78131;SDS011;67381;47.672;9.380;2023-03-14T09:52:59;1.00;;;0.40;;
78131;SDS011;67381;47.672;9.380;2023-03-14T09:55:29;0.88;;;0.20;;
78131;SDS011;67381;47.672;9.380;2023-03-14T09:57:58;2.92;;;0.50;;
78131;SDS011;67381;47.672;9.380;2023-03-14T10:00:28;0.75;;;0.32;;
78131;SDS011;67381;47.672;9.380;2023-03-14T10:03:09;0.70;;;0.35;;
78131;SDS011;67381;47.672;9.380;2023-03-14T10:05:41;1.08;;;0.35;;
78131;SDS011;67381;47.672;9.380;2023-03-14T10:08:12;0.47;;;0.28;;
78131;SDS011;67381;47.672;9.380;2023-03-14T10:10:40;1.38;;;0.35;;
78131;SDS011;67381;47.672;9.380;2023-03-14T10:15:48;0.82;;;0.30;;
78131;SDS011;67381;47.672;9.380;2023-03-14T10:18:18;1.38;;;0.30;;
78131;SDS011;67381;47.672;9.380;2023-03-14T10:20:47;0.77;;;0.40;;
78131;SDS011;67381;47.672;9.380;2023-03-14T10:25:43;2.03;;;0.40;;
78131;SDS011;67381;47.672;9.380;2023-03-14T10:28:26;1.30;;;0.57;;
78131;SDS011;67381;47.672;9.380;2023-03-14T10:30:55;2.92;;;0.50;;
78131;SDS011;67381;47.672;9.380;2023-03-14T10:33:27;2.17;;;0.68;;
78131;SDS011;67381;47.672;9.380;2023-03-14T10:35:59;0.47;;;0.20;;
78131;SDS011;67381;47.672;9.380;2023-03-14T10:38:33;2.17;;;0.30;;
78131;SDS011;67381;47.672;9.380;2023-03-14T10:41:14;1.13;;;0.35;;
78131;SDS011;67381;47.672;9.380;2023-03-14T10:43:43;0.68;;;0.30;;
78131;SDS011;67381;47.672;9.380;2023-03-14T10:46:17;1.33;;;0.55;;
78131;SDS011;67381;47.672;9.380;2023-03-14T10:48:46;1.88;;;0.70;;
78131;SDS011;67381;47.672;9.380;2023-03-14T10:53:47;1.08;;;0.30;;
78131;SDS011;67381;47.672;9.380;2023-03-14T10:56:20;0.90;;;0.50;;
78131;SDS011;67381;47.672;9.380;2023-03-14T10:58:49;1.92;;;0.45;;
78131;SDS011;67381;47.672;9.380;2023-03-14T11:07:12;1.02;;;0.32;;
78131;SDS011;67381;47.672;9.380;2023-03-14T11:09:50;1.02;;;0.40;;
78131;SDS011;67381;47.672;9.380;2023-03-14T11:12:38;1.55;;;0.70;;
78131;SDS011;67381;47.672;9.380;2023-03-14T11:23:21;0.95;;;0.38;;
78131;SDS011;67381;47.672;9.380;2023-03-14T11:25:53;0.75;;;0.40;;
78131;SDS011;67381;47.672;9.380;2023-03-14T11:30:55;3.38;;;0.65;;
78131;SDS011;67381;47.672;9.380;2023-03-14T11:36:19;0.73;;;0.30;;
78131;SDS011;67381;47.672;9.380;2023-03-14T11:38:49;1.40;;;0.50;;
78131;SDS011;67381;47.672;9.380;2023-03-14T11:41:20;0.25;;;0.20;;
78131;SDS011;67381;47.672;9.380;2023-03-14T11:43:54;2.55;;;0.30;;
78131;SDS011;67381;47.672;9.380;2023-03-14T11:46:25;0.65;;;0.30;;
78131;SDS011;67381;47.672;9.380;2023-03-14T11:51:33;0.30;;;0.30;;
78131;SDS011;67381;47.672;9.380;2023-03-14T11:54:04;1.27;;;0.22;;
78131;SDS011;67381;47.672;9.380;2023-03-14T11:56:38;0.35;;;0.28;;
78131;SDS011;67381;47.672;9.380;2023-03-14T11:59:25;1.13;;;0.47;;
78131;SDS011;67381;47.672;9.380;2023-03-14T12:07:19;1.33;;;0.38;;
78131;SDS011;67381;47.672;9.380;2023-03-14T12:09:48;0.25;;;0.20;;
78131;SDS011;67381;47.672;9.380;2023-03-14T12:12:18;1.60;;;0.65;;
78131;SDS011;67381;47.672;9.380;2023-03-14T12:14:55;0.90;;;0.38;;
78131;SDS011;67381;47.672;9.380;2023-03-14T12:17:37;0.30;;;0.30;;
78131;SDS011;67381;47.672;9.380;2023-03-14T12:22:53;0.30;;;0.30;;
78131;SDS011;67381;47.672;9.380;2023-03-14T12:25:23;0.65;;;0.30;;
78131;SDS011;67381;47.672;9.380;2023-03-14T12:35:44;1.02;;;0.30;;
78131;SDS011;67381;47.672;9.380;2023-03-14T12:38:23;0.88;;;0.43;;
78131;SDS011;67381;47.672;9.380;2023-03-14T12:41:08;1.00;;;0.40;;
78131;SDS011;67381;47.672;9.380;2023-03-14T12:43:42;0.45;;;0.28;;
78131;SDS011;67381;47.672;9.380;2023-03-14T12:48:47;0.50;;;0.28;;
78131;SDS011;67381;47.672;9.380;2023-03-14T12:51:18;0.93;;;0.30;;
78131;SDS011;67381;47.672;9.380;2023-03-14T12:58:58;0.65;;;0.38;;
78131;SDS011;67381;47.672;9.380;2023-03-14T13:01:28;1.73;;;0.80;;
78131;SDS011;67381;47.672;9.380;2023-03-14T13:03:56;1.48;;;0.40;;
78131;SDS011;67381;47.672;9.380;2023-03-14T13:09:34;1.85;;;0.40;;
78131;SDS011;67381;47.672;9.380;2023-03-14T13:12:13;1.17;;;0.45;;
78131;SDS011;67381;47.672;9.380;2023-03-14T13:14:43;2.08;;;0.65;;
78131;SDS011;67381;47.672;9.380;2023-03-14T13:17:12;2.67;;;0.70;;
78131;SDS011;67381;47.672;9.380;2023-03-14T13:20:01;0.68;;;0.38;;
78131;SDS011;67381;47.672;9.380;2023-03-14T13:22:47;2.03;;;0.28;;
78131;SDS011;67381;47.672;9.380;2023-03-14T13:25:15;0.47;;;0.20;;
78131;SDS011;67381;47.672;9.380;2023-03-14T13:27:45;1.65;;;0.40;;
78131;SDS011;67381;47.672;9.380;2023-03-14T13:30:14;3.30;;;0.60;;
78131;SDS011;67381;47.672;9.380;2023-03-14T13:32:47;2.70;;;0.70;;
78131;SDS011;67381;47.672;9.380;2023-03-14T13:35:19;2.83;;;0.30;;
78131;SDS011;67381;47.672;9.380;2023-03-14T13:37:47;0.70;;;0.30;;
78131;SDS011;67381;47.672;9.380;2023-03-14T13:40:31;1.83;;;0.52;;
78131;SDS011;67381;47.672;9.380;2023-03-14T13:43:03;1.17;;;0.40;;
78131;SDS011;67381;47.672;9.380;2023-03-14T13:45:41;2.33;;;0.30;;
78131;SDS011;67381;47.672;9.380;2023-03-14T13:48:12;1.48;;;0.25;;
78131;SDS011;67381;47.672;9.380;2023-03-14T13:50:39;0.73;;;0.30;;
78131;SDS011;67381;47.672;9.380;2023-03-14T13:53:13;0.52;;;0.30;;
78131;SDS011;67381;47.672;9.380;2023-03-14T13:55:40;0.60;;;0.30;;
78131;SDS011;67381;47.672;9.380;2023-03-14T13:58:24;0.30;;;0.28;;
78131;SDS011;67381;47.672;9.380;2023-03-14T14:01:39;0.45;;;0.28;;
78131;SDS011;67381;47.672;9.380;2023-03-14T14:03:49;0.38;;;0.30;;
78131;SDS011;67381;47.672;9.380;2023-03-14T14:08:58;2.92;;;0.30;;
78131;SDS011;67381;47.672;9.380;2023-03-14T14:14:21;1.63;;;0.50;;
78131;SDS011;67381;47.672;9.380;2023-03-14T14:16:57;1.45;;;0.20;;
78131;SDS011;67381;47.672;9.380;2023-03-14T14:19:27;1.63;;;0.43;;
78131;SDS011;67381;47.672;9.380;2023-03-14T14:21:56;0.45;;;0.30;;
78131;SDS011;67381;47.672;9.380;2023-03-14T14:24:24;0.93;;;0.30;;
78131;SDS011;67381;47.672;9.380;2023-03-14T14:26:59;2.70;;;0.50;;
78131;SDS011;67381;47.672;9.380;2023-03-14T14:29:39;1.98;;;0.40;;
78131;SDS011;67381;47.672;9.380;2023-03-14T14:34:41;1.40;;;0.50;;
78131;SDS011;67381;47.672;9.380;2023-03-14T14:39:55;2.20;;;0.43;;
78131;SDS011;67381;47.672;9.380;2023-03-14T14:42:25;2.30;;;0.50;;
78131;SDS011;67381;47.672;9.380;2023-03-14T14:44:55;3.92;;;0.60;;
78131;SDS011;67381;47.672;9.380;2023-03-14T14:47:23;2.03;;;0.73;;
78131;SDS011;67381;47.672;9.380;2023-03-14T14:49:53;2.33;;;0.63;;
78131;SDS011;67381;47.672;9.380;2023-03-14T14:52:31;2.17;;;1.05;;
78131;SDS011;67381;47.672;9.380;2023-03-14T14:55:01;3.90;;;0.82;;
78131;SDS011;67381;47.672;9.380;2023-03-14T14:57:33;1.40;;;0.60;;
78131;SDS011;67381;47.672;9.380;2023-03-14T15:00:09;2.55;;;1.10;;
78131;SDS011;67381;47.672;9.380;2023-03-14T15:02:47;2.67;;;0.47;;
78131;SDS011;67381;47.672;9.380;2023-03-14T15:05:25;1.70;;;0.52;;
78131;SDS011;67381;47.672;9.380;2023-03-14T15:07:54;2.53;;;0.80;;
78131;SDS011;67381;47.672;9.380;2023-03-14T15:10:22;3.08;;;0.80;;
78131;SDS011;67381;47.672;9.380;2023-03-14T15:12:51;3.33;;;0.50;;
78131;SDS011;67381;47.672;9.380;2023-03-14T15:15:18;2.92;;;0.60;;
78131;SDS011;67381;47.672;9.380;2023-03-14T15:17:46;2.38;;;0.70;;
78131;SDS011;67381;47.672;9.380;2023-03-14T15:20:14;2.25;;;0.65;;
78131;SDS011;67381;47.672;9.380;2023-03-14T15:22:42;1.98;;;0.55;;
78131;SDS011;67381;47.672;9.380;2023-03-14T15:25:10;4.07;;;0.60;;
78131;SDS011;67381;47.672;9.380;2023-03-14T15:27:57;2.28;;;0.50;;
78131;SDS011;67381;47.672;9.380;2023-03-14T15:30:24;2.88;;;0.52;;
78131;SDS011;67381;47.672;9.380;2023-03-14T15:32:51;3.83;;;0.60;;
78131;SDS011;67381;47.672;9.380;2023-03-14T15:35:19;3.35;;;0.70;;
78131;SDS011;67381;47.672;9.380;2023-03-14T15:37:46;2.30;;;0.70;;
78131;SDS011;67381;47.672;9.380;2023-03-14T15:40:13;5.57;;;0.70;;
78131;SDS011;67381;47.672;9.380;2023-03-14T15:42:41;1.73;;;0.50;;
78131;SDS011;67381;47.672;9.380;2023-03-14T15:45:09;2.92;;;1.00;;
78131;SDS011;67381;47.672;9.380;2023-03-14T15:47:36;4.80;;;1.67;;
78131;SDS011;67381;47.672;9.380;2023-03-14T15:50:04;3.70;;;0.98;;
78131;SDS011;67381;47.672;9.380;2023-03-14T15:52:31;2.03;;;0.70;;
78131;SDS011;67381;47.672;9.380;2023-03-14T15:54:59;3.95;;;0.77;;
78131;SDS011;67381;47.672;9.380;2023-03-14T15:57:26;2.17;;;0.70;;
78131;SDS011;67381;47.672;9.380;2023-03-14T15:59:54;2.80;;;0.70;;
78131;SDS011;67381;47.672;9.380;2023-03-14T16:02:24;3.03;;;0.80;;
78131;SDS011;67381;47.672;9.380;2023-03-14T16:04:51;2.42;;;0.88;;
78131;SDS011;67381;47.672;9.380;2023-03-14T16:07:18;2.08;;;0.52;;
78131;SDS011;67381;47.672;9.380;2023-03-14T16:09:46;2.13;;;1.13;;
78131;SDS011;67381;47.672;9.380;2023-03-14T16:12:13;2.72;;;0.93;;
78131;SDS011;67381;47.672;9.380;2023-03-14T16:14:40;2.95;;;0.77;;